GB-0472 weather

Titsey Airstrip
England, United Kingdom

Public forecast

Using degrees Celsius for public forecast. Weather courtesy of forecast.io.

METAR (pilot weather report)

Report is more than 2 hours old.

Closest report is London Biggin Hill Airport, 3.3 nm (6.2 km) N. Retrieved 2018/07/18 21:20 UTC (6 hours ago):

EGKB 182120Z 22004KT CAVOK 17/11 Q1019

TAF (pilot weather forecast)

Forecast is more than 12 hours old.

Closest forecast is London Biggin Hill Airport, 3.3 nm (6.2 km) N. Retrieved 2016/03/02 12:00 UTC (2 years ago):

TAF EGKB 021104Z 0212/0221 25015G25KT 9999 SCT020 TEMPO 0212/0216 25025G38KT 5000 SHRA BKN012CB PROB30 TEMPO 0212/0215 2500 +SHGS +SHRASN TEMPO 0216/0221 29025G35KT TEMPO 0218/0221 BKN009